Time;durP1;ratioP1;P1;durP2;ratioP2;P2;SDS_P1;SDS_P2;PMS_P1;PMS_P2;Temp;Humidity;BMP_temperature;BMP_pressure;BME280_temperature;BME280_humidity;BME280_pressure;Samples;Min_cycle;Max_cycle;Signal;HPM_P1;HPM_P2
2021/12/11 00:01:39;;;;;;;16.63;10.10;;;;;;;;;;4968322;28;20105;-70
2021/12/11 00:04:09;;;;;;;15.70;10.15;;;;;;;;;;4968423;28;20030;-68
2021/12/11 00:06:42;;;;;;;16.23;10.30;;;;;;;;;;4973177;28;20043;-67
2021/12/11 00:09:18;;;;;;;13.20;8.57;;;;;;;;;;4970374;28;20436;-66
2021/12/11 00:11:47;;;;;;;17.60;9.05;;;;;;;;;;4973555;28;20023;-68
2021/12/11 00:14:14;;;;;;;15.55;9.80;;;;;;;;;;4964922;28;20042;-70
2021/12/11 00:16:41;;;;;;;14.30;9.93;;;;;;;;;;4966820;28;20097;-68
2021/12/11 00:19:15;;;;;;;16.85;10.23;;;;;;;;;;4972551;28;20392;-67
2021/12/11 00:21:42;;;;;;;18.02;9.90;;;;;;;;;;4968807;28;20023;-67
2021/12/11 00:24:14;;;;;;;13.95;9.55;;;;;;;;;;4969841;28;20121;-69
2021/12/11 00:26:53;;;;;;;16.45;10.32;;;;;;;;;;4973420;28;20444;-68
2021/12/11 00:29:24;;;;;;;16.48;10.48;;;;;;;;;;4969424;28;20483;-70
2021/12/11 00:31:54;;;;;;;16.27;9.90;;;;;;;;;;4972560;28;20756;-68
2021/12/11 00:34:22;;;;;;;15.30;10.07;;;;;;;;;;4970948;28;20033;-68
2021/12/11 00:37:04;;;;;;;16.13;9.23;;;;;;;;;;4970431;28;20475;-69
2021/12/11 00:39:30;;;;;;;17.33;9.43;;;;;;;;;;4975199;28;20114;-68
2021/12/11 00:42:00;;;;;;;17.83;10.05;;;;;;;;;;4970599;28;20031;-70
2021/12/11 00:44:43;;;;;;;13.93;8.85;;;;;;;;;;4969233;28;20070;-69
2021/12/11 00:47:21;;;;;;;16.73;10.15;;;;;;;;;;4973364;28;20110;-70
2021/12/11 00:49:58;;;;;;;13.55;9.13;;;;;;;;;;4971706;28;20507;-67
2021/12/11 00:52:41;;;;;;;16.85;9.32;;;;;;;;;;4969445;28;20092;-67
2021/12/11 00:55:18;;;;;;;13.95;9.32;;;;;;;;;;4969709;28;20335;-68
2021/12/11 00:57:45;;;;;;;13.80;9.45;;;;;;;;;;4969368;28;20053;-69
2021/12/11 01:00:17;;;;;;;18.35;9.88;;;;;;;;;;4971183;28;20031;-68
2021/12/11 01:02:46;;;;;;;14.17;8.97;;;;;;;;;;4970925;28;20019;-68
2021/12/11 01:05:11;;;;;;;13.10;8.60;;;;;;;;;;4964784;28;20794;-70
2021/12/11 01:07:39;;;;;;;12.63;8.18;;;;;;;;;;4962786;28;20030;-69
2021/12/11 01:10:23;;;;;;;12.20;7.45;;;;;;;;;;4965026;28;20202;-68
2021/12/11 01:13:01;;;;;;;10.52;6.32;;;;;;;;;;4966284;28;20031;-69
2021/12/11 01:15:40;;;;;;;11.95;7.10;;;;;;;;;;4967357;28;20113;-68
2021/12/11 01:26:52;;;;;;;11.02;6.68;;;;;;;;;;4968207;28;20027;-69
2021/12/11 01:29:19;;;;;;;9.48;6.65;;;;;;;;;;4968289;28;20108;-68
2021/12/11 01:31:46;;;;;;;10.55;6.65;;;;;;;;;;4970487;28;20088;-67
2021/12/11 01:34:11;;;;;;;11.00;6.95;;;;;;;;;;4967840;28;20046;-68
2021/12/11 01:36:39;;;;;;;8.98;5.95;;;;;;;;;;4972029;28;20414;-70
2021/12/11 01:39:11;;;;;;;13.57;7.13;;;;;;;;;;4982331;28;20094;-69
2021/12/11 01:41:37;;;;;;;13.35;7.97;;;;;;;;;;4969190;28;20123;-69
2021/12/11 01:44:08;;;;;;;13.30;8.00;;;;;;;;;;4966829;28;20376;-68
2021/12/11 01:46:35;;;;;;;13.02;8.95;;;;;;;;;;4970921;28;20103;-68
2021/12/11 01:49:03;;;;;;;12.10;8.32;;;;;;;;;;4967772;28;20101;-68
2021/12/11 01:51:39;;;;;;;14.18;8.93;;;;;;;;;;4969171;28;20039;-68
2021/12/11 01:54:25;;;;;;;14.35;9.02;;;;;;;;;;4964230;28;20026;-69
2021/12/11 01:56:59;;;;;;;14.80;9.13;;;;;;;;;;4968810;28;20065;-69
2021/12/11 01:59:31;;;;;;;13.70;8.63;;;;;;;;;;4969283;28;20030;-67
2021/12/11 02:02:05;;;;;;;14.02;9.02;;;;;;;;;;4970591;28;20045;-67
2021/12/11 02:04:34;;;;;;;13.60;8.73;;;;;;;;;;4970256;28;20023;-67
2021/12/11 02:07:07;;;;;;;16.00;8.40;;;;;;;;;;4969870;28;20023;-67
2021/12/11 02:09:35;;;;;;;11.03;8.30;;;;;;;;;;4969646;28;20100;-67
2021/12/11 02:12:16;;;;;;;10.65;7.28;;;;;;;;;;4969063;28;20100;-68
2021/12/11 02:14:47;;;;;;;14.20;7.72;;;;;;;;;;4969896;28;20047;-67
2021/12/11 02:17:32;;;;;;;14.00;7.95;;;;;;;;;;4968030;28;20399;-68
2021/12/11 02:20:00;;;;;;;10.80;7.30;;;;;;;;;;4967653;28;20088;-67
2021/12/11 02:22:32;;;;;;;12.57;7.78;;;;;;;;;;4965597;28;20479;-69
2021/12/11 02:25:02;;;;;;;12.15;7.25;;;;;;;;;;4967642;28;20030;-66
2021/12/11 02:27:41;;;;;;;11.63;7.40;;;;;;;;;;4965199;28;20121;-68
2021/12/11 02:30:23;;;;;;;14.50;8.15;;;;;;;;;;4961962;28;20034;-66
2021/12/11 02:33:12;;;;;;;8.90;5.75;;;;;;;;;;4967129;28;20050;-67
2021/12/11 02:36:11;;;;;;;11.02;6.30;;;;;;;;;;4964091;28;20038;-66
2021/12/11 02:38:40;;;;;;;9.27;5.68;;;;;;;;;;4969175;28;20169;-67
2021/12/11 02:41:08;;;;;;;10.88;6.57;;;;;;;;;;4967288;28;20019;-66
2021/12/11 02:43:39;;;;;;;8.23;5.90;;;;;;;;;;4967627;28;20042;-68
2021/12/11 02:46:11;;;;;;;8.10;5.22;;;;;;;;;;4966096;28;20113;-68
2021/12/11 02:48:49;;;;;;;8.63;5.90;;;;;;;;;;4963969;28;20702;-67
2021/12/11 02:51:27;;;;;;;9.10;5.97;;;;;;;;;;4965939;28;20101;-66
2021/12/11 02:54:07;;;;;;;8.18;5.60;;;;;;;;;;4965252;28;20483;-66
2021/12/11 02:56:39;;;;;;;10.80;6.40;;;;;;;;;;4967637;28;20444;-66
2021/12/11 02:59:15;;;;;;;11.18;6.45;;;;;;;;;;4966677;28;20027;-68
2021/12/11 03:01:56;;;;;;;10.13;5.50;;;;;;;;;;4965065;28;20038;-67
2021/12/11 03:04:32;;;;;;;8.48;5.55;;;;;;;;;;4969701;28;20200;-66
2021/12/11 03:07:00;;;;;;;9.48;5.70;;;;;;;;;;4966136;28;20105;-68
2021/12/11 03:09:29;;;;;;;10.23;6.25;;;;;;;;;;4981600;28;20070;-66
2021/12/11 03:11:57;;;;;;;8.57;6.00;;;;;;;;;;4964936;28;20069;-67
2021/12/11 03:14:27;;;;;;;11.95;6.93;;;;;;;;;;4966651;28;20030;-67
2021/12/11 03:16:54;;;;;;;12.15;6.60;;;;;;;;;;4982934;28;20097;-67
2021/12/11 03:19:25;;;;;;;9.40;6.28;;;;;;;;;;4966872;28;20050;-67
2021/12/11 03:21:52;;;;;;;9.55;6.68;;;;;;;;;;4968991;28;20023;-67
2021/12/11 03:24:18;;;;;;;15.27;6.90;;;;;;;;;;4969433;28;20029;-67
2021/12/11 03:26:47;;;;;;;11.40;6.15;;;;;;;;;;4968071;28;20069;-67
2021/12/11 03:29:14;;;;;;;11.40;6.70;;;;;;;;;;4966662;28;20454;-67
2021/12/11 03:31:42;;;;;;;13.70;7.38;;;;;;;;;;4964254;28;20030;-68
2021/12/11 03:34:12;;;;;;;11.38;7.60;;;;;;;;;;4964659;28;20029;-66
2021/12/11 03:36:39;;;;;;;13.07;7.53;;;;;;;;;;4967630;28;20053;-69
2021/12/11 03:39:16;;;;;;;15.32;7.38;;;;;;;;;;4967556;28;20037;-68
2021/12/11 03:41:44;;;;;;;12.32;7.50;;;;;;;;;;4965176;28;20049;-67
2021/12/11 03:44:10;;;;;;;11.27;7.50;;;;;;;;;;4964551;28;21231;-68
2021/12/11 03:46:36;;;;;;;9.32;7.15;;;;;;;;;;4967719;28;20041;-66
2021/12/11 03:49:07;;;;;;;12.10;7.45;;;;;;;;;;4967039;28;20541;-68
2021/12/11 03:51:36;;;;;;;12.80;7.95;;;;;;;;;;4965918;28;20031;-68
2021/12/11 03:54:06;;;;;;;14.88;7.72;;;;;;;;;;4970432;28;20060;-66
2021/12/11 03:56:33;;;;;;;13.27;7.90;;;;;;;;;;4966700;28;20089;-66
2021/12/11 03:59:00;;;;;;;13.30;8.10;;;;;;;;;;4968892;28;20163;-69
2021/12/11 04:01:33;;;;;;;12.85;8.68;;;;;;;;;;4971568;28;20058;-68
2021/12/11 04:04:05;;;;;;;16.67;7.70;;;;;;;;;;4965720;28;20150;-68
2021/12/11 04:06:31;;;;;;;14.93;7.82;;;;;;;;;;4967184;28;20523;-68
2021/12/11 04:08:58;;;;;;;12.77;8.13;;;;;;;;;;4969700;28;20026;-67
2021/12/11 04:11:30;;;;;;;16.10;8.68;;;;;;;;;;4969451;28;20035;-70
2021/12/11 04:13:59;;;;;;;18.30;8.98;;;;;;;;;;4973038;28;20026;-67
2021/12/11 04:16:26;;;;;;;14.77;9.15;;;;;;;;;;4970640;28;20116;-70
2021/12/11 04:18:51;;;;;;;16.42;10.20;;;;;;;;;;4968152;28;20045;-68
2021/12/11 04:21:17;;;;;;;14.88;9.43;;;;;;;;;;4968931;28;20027;-68
2021/12/11 04:23:43;;;;;;;15.18;9.38;;;;;;;;;;4973703;28;20122;-69
2021/12/11 04:26:10;;;;;;;17.48;9.77;;;;;;;;;;4973949;28;20042;-69
2021/12/11 04:28:38;;;;;;;15.73;9.93;;;;;;;;;;4968488;28;20031;-68
2021/12/11 04:31:09;;;;;;;20.00;9.60;;;;;;;;;;4966755;28;20538;-69
2021/12/11 04:33:40;;;;;;;18.00;9.68;;;;;;;;;;4970268;28;20027;-69
2021/12/11 04:36:11;;;;;;;13.43;9.20;;;;;;;;;;4971542;28;20122;-70
2021/12/11 04:38:38;;;;;;;16.63;8.98;;;;;;;;;;4971607;28;20065;-67
2021/12/11 04:41:06;;;;;;;17.67;9.80;;;;;;;;;;4970846;28;20130;-67
2021/12/11 04:43:33;;;;;;;16.40;9.40;;;;;;;;;;4972135;28;20144;-70
2021/12/11 04:46:05;;;;;;;17.45;9.48;;;;;;;;;;4970931;28;20030;-71
2021/12/11 04:51:27;;;;;;;13.77;8.98;;;;;;;;;;4973628;28;20030;-69
2021/12/11 05:09:39;;;;;;;20.90;10.85;;;;;;;;;;4978495;28;20065;-68
2021/12/11 05:12:27;;;;;;;17.10;10.02;;;;;;;;;;4967004;28;20046;-69
2021/12/11 05:14:52;;;;;;;18.63;11.45;;;;;;;;;;4966972;28;20085;-68
2021/12/11 05:17:20;;;;;;;21.98;12.32;;;;;;;;;;4967053;28;20163;-68
2021/12/11 05:19:48;;;;;;;19.38;12.00;;;;;;;;;;4963048;28;20077;-68
2021/12/11 05:22:15;;;;;;;18.67;11.27;;;;;;;;;;4967371;28;20026;-68
2021/12/11 05:24:49;;;;;;;26.90;15.45;;;;;;;;;;4970527;28;20027;-67
2021/12/11 05:27:15;;;;;;;20.90;12.77;;;;;;;;;;4971134;28;20027;-67
2021/12/11 05:29:40;;;;;;;20.05;12.70;;;;;;;;;;4973234;28;20030;-68
2021/12/11 05:32:10;;;;;;;29.75;16.70;;;;;;;;;;4967347;28;20392;-68
2021/12/11 05:34:37;;;;;;;24.80;12.75;;;;;;;;;;4967514;28;20768;-68
2021/12/11 05:37:04;;;;;;;22.52;12.90;;;;;;;;;;4970737;28;20173;-68
2021/12/11 05:39:29;;;;;;;18.55;12.57;;;;;;;;;;4967627;28;20062;-69
2021/12/11 05:41:55;;;;;;;19.55;12.55;;;;;;;;;;4968506;28;20062;-70
2021/12/11 05:44:22;;;;;;;23.48;13.23;;;;;;;;;;4967926;28;20034;-69
2021/12/11 05:46:49;;;;;;;21.38;13.00;;;;;;;;;;4968046;28;20049;-67
2021/12/11 05:49:15;;;;;;;20.33;13.18;;;;;;;;;;4971085;28;20031;-68
2021/12/11 05:51:45;;;;;;;21.33;11.95;;;;;;;;;;4966476;28;20065;-68
2021/12/11 05:54:17;;;;;;;20.33;12.88;;;;;;;;;;4967613;28;20081;-70
2021/12/11 05:56:44;;;;;;;22.17;12.13;;;;;;;;;;4967037;28;20136;-68
2021/12/11 05:59:14;;;;;;;20.98;13.07;;;;;;;;;;4966997;28;20566;-67
2021/12/11 06:01:44;;;;;;;22.52;12.63;;;;;;;;;;4969117;28;20109;-69
2021/12/11 06:04:14;;;;;;;19.95;12.80;;;;;;;;;;4965980;28;20034;-70
2021/12/11 06:06:42;;;;;;;20.88;12.80;;;;;;;;;;4967495;28;20161;-69
2021/12/11 06:09:10;;;;;;;21.55;12.77;;;;;;;;;;4967761;28;20046;-68
2021/12/11 06:11:37;;;;;;;19.02;12.27;;;;;;;;;;4967829;28;20113;-67
2021/12/11 06:14:03;;;;;;;21.30;13.23;;;;;;;;;;4965126;28;20035;-69
2021/12/11 06:16:29;;;;;;;22.73;12.30;;;;;;;;;;4967951;28;20139;-69
2021/12/11 06:18:55;;;;;;;22.48;12.98;;;;;;;;;;4970096;28;20423;-68
2021/12/11 06:21:21;;;;;;;23.23;14.65;;;;;;;;;;4968257;28;20527;-68
2021/12/11 06:23:46;;;;;;;23.25;13.15;;;;;;;;;;4966762;28;20480;-68
2021/12/11 06:26:12;;;;;;;23.20;14.45;;;;;;;;;;4966835;28;20126;-69
2021/12/11 06:28:39;;;;;;;24.92;14.80;;;;;;;;;;4967786;28;20038;-69
2021/12/11 06:31:05;;;;;;;21.80;13.50;;;;;;;;;;4970896;28;20483;-66
2021/12/11 06:33:33;;;;;;;25.63;13.52;;;;;;;;;;4966559;28;20026;-67
2021/12/11 06:36:10;;;;;;;24.95;14.32;;;;;;;;;;4970593;28;20052;-67
2021/12/11 06:38:37;;;;;;;24.00;14.57;;;;;;;;;;4969485;28;20037;-67
2021/12/11 06:41:07;;;;;;;22.98;13.52;;;;;;;;;;4966503;28;20027;-68
2021/12/11 06:43:34;;;;;;;24.27;13.93;;;;;;;;;;4968588;28;20463;-67
2021/12/11 06:46:00;;;;;;;25.23;14.10;;;;;;;;;;4968966;28;20030;-67
2021/12/11 06:48:26;;;;;;;23.67;14.52;;;;;;;;;;4966501;28;20113;-67
2021/12/11 06:50:52;;;;;;;25.30;14.98;;;;;;;;;;4965753;28;20586;-65
2021/12/11 06:53:33;;;;;;;21.65;14.23;;;;;;;;;;4967761;28;20082;-65
2021/12/11 06:55:58;;;;;;;22.88;13.52;;;;;;;;;;4971364;28;20038;-69
2021/12/11 06:58:25;;;;;;;22.17;14.02;;;;;;;;;;4966396;28;20038;-67
2021/12/11 07:00:51;;;;;;;24.92;14.32;;;;;;;;;;4969205;28;20035;-66
2021/12/11 07:03:17;;;;;;;32.17;17.70;;;;;;;;;;4970330;28;20034;-68
2021/12/11 07:05:42;;;;;;;26.40;15.07;;;;;;;;;;4968392;28;20124;-66
2021/12/11 07:08:11;;;;;;;24.38;14.57;;;;;;;;;;4965955;28;20055;-67
2021/12/11 07:10:38;;;;;;;28.10;16.42;;;;;;;;;;4968770;28;20027;-68
2021/12/11 07:13:03;;;;;;;31.77;14.73;;;;;;;;;;4968143;28;20038;-66
2021/12/11 07:15:29;;;;;;;27.25;15.30;;;;;;;;;;4971099;28;20048;-67
2021/12/11 07:17:55;;;;;;;28.02;13.93;;;;;;;;;;4969179;28;20137;-67
2021/12/11 07:20:20;;;;;;;27.35;14.90;;;;;;;;;;4970156;28;20173;-68
2021/12/11 07:22:45;;;;;;;29.02;15.20;;;;;;;;;;4971134;28;20033;-67
2021/12/11 07:25:27;;;;;;;28.17;15.15;;;;;;;;;;4970898;28;20038;-68
2021/12/11 07:27:56;;;;;;;28.27;15.30;;;;;;;;;;4953940;28;20035;-68
2021/12/11 07:30:23;;;;;;;32.72;15.07;;;;;;;;;;4971375;28;20456;-66
2021/12/11 07:32:54;;;;;;;24.13;14.27;;;;;;;;;;4967451;28;20057;-66
2021/12/11 07:35:20;;;;;;;29.45;15.18;;;;;;;;;;4966864;28;20033;-66
2021/12/11 07:37:49;;;;;;;27.48;15.55;;;;;;;;;;4966293;28;20035;-67
2021/12/11 07:40:16;;;;;;;25.95;14.63;;;;;;;;;;4967533;28;20042;-67
2021/12/11 07:42:41;;;;;;;26.27;14.60;;;;;;;;;;4961952;28;20447;-67
2021/12/11 07:45:07;;;;;;;23.90;14.60;;;;;;;;;;4969975;28;20026;-69
2021/12/11 07:47:33;;;;;;;27.30;14.07;;;;;;;;;;4970679;28;20033;-65
2021/12/11 07:49:58;;;;;;;29.08;14.68;;;;;;;;;;4971052;28;20053;-66
2021/12/11 07:52:24;;;;;;;29.45;14.50;;;;;;;;;;4973409;28;20035;-67
2021/12/11 07:54:49;;;;;;;28.33;14.38;;;;;;;;;;4973182;28;20031;-66
2021/12/11 07:57:15;;;;;;;32.42;16.02;;;;;;;;;;4970045;28;20068;-66
2021/12/11 07:59:40;;;;;;;27.48;14.32;;;;;;;;;;4973427;28;20022;-67
2021/12/11 08:02:06;;;;;;;24.98;14.93;;;;;;;;;;4969877;28;20114;-67
2021/12/11 08:04:32;;;;;;;23.85;14.38;;;;;;;;;;4971758;28;20514;-67
2021/12/11 08:06:57;;;;;;;24.83;14.45;;;;;;;;;;4971042;28;20105;-66
2021/12/11 08:09:24;;;;;;;26.38;14.18;;;;;;;;;;4969766;28;20164;-68
2021/12/11 08:11:51;;;;;;;29.50;14.75;;;;;;;;;;4971715;28;20026;-66
2021/12/11 08:14:17;;;;;;;26.63;13.73;;;;;;;;;;4972883;28;20031;-67
2021/12/11 08:16:46;;;;;;;30.35;14.52;;;;;;;;;;4972154;28;20034;-68
2021/12/11 08:19:15;;;;;;;33.40;14.98;;;;;;;;;;4971541;28;20288;-66
2021/12/11 08:21:40;;;;;;;30.15;14.60;;;;;;;;;;4973077;28;20033;-67
2021/12/11 08:24:07;;;;;;;32.65;15.80;;;;;;;;;;4971718;28;20023;-67
2021/12/11 08:26:35;;;;;;;28.15;15.43;;;;;;;;;;4973339;28;20057;-67
2021/12/11 08:29:01;;;;;;;24.13;14.10;;;;;;;;;;4971934;28;20475;-68
2021/12/11 08:31:27;;;;;;;36.20;16.00;;;;;;;;;;4975446;28;20054;-68
2021/12/11 08:33:53;;;;;;;24.25;13.50;;;;;;;;;;4969345;28;20027;-67
2021/12/11 08:36:21;;;;;;;28.48;15.13;;;;;;;;;;4972076;28;20037;-66
2021/12/11 08:38:47;;;;;;;26.15;13.88;;;;;;;;;;4971826;28;20059;-66
2021/12/11 08:41:16;;;;;;;24.77;13.48;;;;;;;;;;4967637;28;20049;-67
2021/12/11 08:43:43;;;;;;;24.27;13.55;;;;;;;;;;4972548;28;20019;-68
2021/12/11 08:46:22;;;;;;;29.58;15.25;;;;;;;;;;4971072;28;20133;-70
2021/12/11 08:48:49;;;;;;;27.35;14.93;;;;;;;;;;4970816;28;20054;-67
2021/12/11 08:51:20;;;;;;;27.63;13.93;;;;;;;;;;4971266;28;20431;-68
2021/12/11 08:53:45;;;;;;;24.65;13.10;;;;;;;;;;4968766;28;20360;-66
2021/12/11 08:56:12;;;;;;;24.52;13.35;;;;;;;;;;4975143;28;20124;-66
2021/12/11 08:58:40;;;;;;;24.15;13.10;;;;;;;;;;4968160;28;20026;-69
2021/12/11 09:01:27;;;;;;;28.27;13.68;;;;;;;;;;4971697;28;20053;-66
2021/12/11 09:04:28;;;;;;;24.05;13.45;;;;;;;;;;4969519;28;20384;-66
2021/12/11 09:06:59;;;;;;;25.52;12.90;;;;;;;;;;4970660;28;20069;-66
2021/12/11 09:09:39;;;;;;;22.42;11.93;;;;;;;;;;4971170;28;20030;-67
2021/12/11 09:12:19;;;;;;;25.45;13.55;;;;;;;;;;4970765;28;20034;-67
2021/12/11 09:15:00;;;;;;;27.35;13.68;;;;;;;;;;4973680;28;20395;-67
2021/12/11 09:17:36;;;;;;;26.15;13.02;;;;;;;;;;4969402;28;20499;-67
2021/12/11 09:20:37;;;;;;;28.80;14.70;;;;;;;;;;4971614;28;20030;-66
2021/12/11 09:23:24;;;;;;;32.05;14.18;;;;;;;;;;4971668;28;20058;-66
2021/12/11 09:26:04;;;;;;;29.25;14.55;;;;;;;;;;4968781;28;20033;-66
2021/12/11 09:28:36;;;;;;;27.40;13.50;;;;;;;;;;4972380;28;20039;-65
2021/12/11 09:31:24;;;;;;;27.70;13.85;;;;;;;;;;4971494;28;20407;-67
2021/12/11 09:33:58;;;;;;;24.42;13.57;;;;;;;;;;4964860;28;20340;-66
2021/12/11 09:36:26;;;;;;;;;;;;;;;;;;4963706;28;20018;-65
2021/12/11 09:38:59;;;;;;;25.50;13.43;;;;;;;;;;4963860;28;20121;-67
2021/12/11 09:41:27;;;;;;;24.75;12.98;;;;;;;;;;4965121;28;21156;-67
2021/12/11 09:44:06;;;;;;;26.05;12.43;;;;;;;;;;4962337;28;20050;-67
2021/12/11 09:46:37;;;;;;;24.65;13.60;;;;;;;;;;4964508;28;20063;-68
2021/12/11 09:49:05;;;;;;;22.38;11.98;;;;;;;;;;4962505;28;20510;-67
2021/12/11 09:51:37;;;;;;;23.45;11.77;;;;;;;;;;4963918;28;20467;-67
2021/12/11 09:54:08;;;;;;;25.02;12.63;;;;;;;;;;4962671;28;20065;-67
2021/12/11 09:56:40;;;;;;;21.77;11.30;;;;;;;;;;4959547;28;20093;-67
2021/12/11 09:59:09;;;;;;;25.05;11.75;;;;;;;;;;4963317;28;20148;-67
2021/12/11 10:01:39;;;;;;;21.45;10.63;;;;;;;;;;4962662;28;20494;-66
2021/12/11 10:04:17;;;;;;;15.75;9.27;;;;;;;;;;4961268;28;20023;-67
2021/12/11 10:07:02;;;;;;;21.35;10.23;;;;;;;;;;4961892;28;20031;-66
2021/12/11 10:09:36;;;;;;;23.77;9.70;;;;;;;;;;4963242;28;20137;-67
2021/12/11 10:12:24;;;;;;;13.98;7.72;;;;;;;;;;4962176;28;20153;-66
2021/12/11 10:15:24;;;;;;;18.55;8.48;;;;;;;;;;4960878;28;20493;-67
2021/12/11 10:18:03;;;;;;;13.32;7.38;;;;;;;;;;4949521;28;20042;-67
2021/12/11 10:20:40;;;;;;;14.23;8.20;;;;;;;;;;4967372;28;20031;-67
2021/12/11 10:23:09;;;;;;;14.13;7.70;;;;;;;;;;4974074;28;20027;-68
2021/12/11 10:25:37;;;;;;;17.42;8.75;;;;;;;;;;4971971;28;20049;-65
2021/12/11 10:28:09;;;;;;;17.40;8.18;;;;;;;;;;4968742;28;20038;-67
2021/12/11 10:30:41;;;;;;;19.35;8.60;;;;;;;;;;4968371;28;20042;-68
2021/12/11 10:33:08;;;;;;;14.70;8.57;;;;;;;;;;4969447;28;20364;-66
2021/12/11 10:35:37;;;;;;;15.70;7.35;;;;;;;;;;4971455;28;20513;-67
2021/12/11 10:38:06;;;;;;;15.32;7.57;;;;;;;;;;4973059;28;20411;-67
2021/12/11 10:40:46;;;;;;;14.10;7.07;;;;;;;;;;4969537;28;20433;-65
2021/12/11 10:43:22;;;;;;;13.88;7.65;;;;;;;;;;4968010;28;20026;-67
2021/12/11 10:45:49;;;;;;;16.10;8.27;;;;;;;;;;4969877;28;20664;-68
2021/12/11 10:48:20;;;;;;;19.35;8.00;;;;;;;;;;4967698;28;20031;-67
2021/12/11 10:50:52;;;;;;;17.35;8.05;;;;;;;;;;4971041;28;20045;-65
2021/12/11 10:53:20;;;;;;;15.73;7.68;;;;;;;;;;4968851;28;20109;-67
2021/12/11 10:55:47;;;;;;;16.02;9.00;;;;;;;;;;4963570;28;20520;-67
2021/12/11 10:58:17;;;;;;;16.40;8.27;;;;;;;;;;4963390;28;20030;-67
2021/12/11 11:00:46;;;;;;;17.60;9.23;;;;;;;;;;4965422;28;20026;-66
2021/12/11 11:03:15;;;;;;;12.57;8.55;;;;;;;;;;4969736;28;20078;-66
2021/12/11 11:05:40;;;;;;;12.25;6.30;;;;;;;;;;4964930;28;20081;-66
2021/12/11 11:08:07;;;;;;;13.73;7.47;;;;;;;;;;4971106;28;20030;-67
2021/12/11 11:10:36;;;;;;;13.80;7.85;;;;;;;;;;4969917;28;20026;-66
2021/12/11 11:13:06;;;;;;;16.45;8.85;;;;;;;;;;4969795;28;20085;-67
2021/12/11 11:15:32;;;;;;;17.17;8.27;;;;;;;;;;4971324;28;20035;-66
2021/12/11 11:17:57;;;;;;;10.30;5.75;;;;;;;;;;4969544;28;20031;-67
2021/12/11 11:20:29;;;;;;;10.57;5.45;;;;;;;;;;4971820;28;20031;-67
2021/12/11 11:23:23;;;;;;;11.10;6.47;;;;;;;;;;4973646;28;20018;-66
2021/12/11 11:25:52;;;;;;;9.50;5.65;;;;;;;;;;4974894;28;20023;-65
2021/12/11 11:28:23;;;;;;;10.93;6.15;;;;;;;;;;4972248;28;21410;-66
2021/12/11 11:30:55;;;;;;;13.20;6.47;;;;;;;;;;4973426;28;20086;-67
2021/12/11 11:33:22;;;;;;;10.50;6.55;;;;;;;;;;4975723;28;20041;-66
2021/12/11 11:35:51;;;;;;;11.80;7.13;;;;;;;;;;4976107;28;20027;-68
2021/12/11 11:38:21;;;;;;;9.18;6.13;;;;;;;;;;4975251;28;20031;-66
2021/12/11 11:40:53;;;;;;;13.95;7.05;;;;;;;;;;4975199;28;20110;-68
2021/12/11 11:43:19;;;;;;;12.55;7.05;;;;;;;;;;4975544;28;20022;-66
2021/12/11 11:45:46;;;;;;;9.90;6.78;;;;;;;;;;4977072;28;20033;-66
2021/12/11 11:48:13;;;;;;;11.70;6.90;;;;;;;;;;4972342;28;20139;-67
2021/12/11 11:50:43;;;;;;;11.45;6.45;;;;;;;;;;4975523;28;20454;-66
2021/12/11 11:53:10;;;;;;;12.70;6.80;;;;;;;;;;4974107;28;20054;-66
2021/12/11 11:55:41;;;;;;;13.13;6.82;;;;;;;;;;4973958;28;20030;-67
2021/12/11 11:58:06;;;;;;;14.63;6.60;;;;;;;;;;4972304;28;20054;-66
2021/12/11 12:00:53;;;;;;;11.50;7.10;;;;;;;;;;4969903;28;20096;-67
2021/12/11 12:03:22;;;;;;;11.90;6.28;;;;;;;;;;4975657;28;20030;-67
2021/12/11 12:05:51;;;;;;;15.98;6.85;;;;;;;;;;4969329;28;20054;-67
2021/12/11 12:08:17;;;;;;;9.38;5.97;;;;;;;;;;4974008;28;20038;-67
2021/12/11 12:10:45;;;;;;;9.10;5.85;;;;;;;;;;4975930;28;20127;-68
2021/12/11 12:13:11;;;;;;;8.77;5.70;;;;;;;;;;4970424;28;20505;-67
2021/12/11 12:15:45;;;;;;;12.63;6.97;;;;;;;;;;4968079;28;20599;-66
2021/12/11 12:18:12;;;;;;;11.50;6.10;;;;;;;;;;4967112;28;20028;-67
2021/12/11 12:20:40;;;;;;;9.40;5.90;;;;;;;;;;4968189;28;20050;-65
2021/12/11 12:23:06;;;;;;;9.38;6.10;;;;;;;;;;4975196;28;20118;-65
2021/12/11 12:25:32;;;;;;;9.00;5.97;;;;;;;;;;4973990;28;20400;-66
2021/12/11 12:27:57;;;;;;;12.15;6.95;;;;;;;;;;4971539;28;20035;-66
2021/12/11 12:30:29;;;;;;;11.70;7.03;;;;;;;;;;4968884;28;20112;-66
2021/12/11 12:32:55;;;;;;;10.95;6.78;;;;;;;;;;4965098;28;20034;-68
2021/12/11 12:35:23;;;;;;;13.48;7.97;;;;;;;;;;4963914;28;20038;-68
2021/12/11 12:37:49;;;;;;;14.52;8.02;;;;;;;;;;4969970;28;20240;-67
2021/12/11 12:40:27;;;;;;;14.65;8.15;;;;;;;;;;4973372;28;20494;-66
2021/12/11 12:42:57;;;;;;;16.05;8.07;;;;;;;;;;4973193;28;20052;-66
2021/12/11 12:45:31;;;;;;;16.40;8.15;;;;;;;;;;4970323;28;20118;-66
2021/12/11 12:48:05;;;;;;;17.25;7.82;;;;;;;;;;4972527;28;20054;-67
2021/12/11 12:50:40;;;;;;;;;;;;;;;;;;4966373;28;20166;-66
2021/12/11 12:53:06;;;;;;;14.13;7.32;;;;;;;;;;4971688;28;20327;-68
2021/12/11 12:55:40;;;;;;;14.00;8.48;;;;;;;;;;4970595;28;20102;-68
2021/12/11 12:58:11;;;;;;;16.05;7.88;;;;;;;;;;4965900;28;20082;-66
2021/12/11 13:00:53;;;;;;;13.90;8.18;;;;;;;;;;4970371;28;20027;-67
2021/12/11 13:03:22;;;;;;;15.73;7.60;;;;;;;;;;4966202;28;20035;-68
2021/12/11 13:05:56;;;;;;;14.18;7.82;;;;;;;;;;4969904;28;20102;-65
2021/12/11 13:08:35;;;;;;;14.27;8.20;;;;;;;;;;4969352;28;20022;-66
2021/12/11 13:11:08;;;;;;;14.95;7.85;;;;;;;;;;4969701;28;20067;-68
2021/12/11 13:13:35;;;;;;;12.55;7.97;;;;;;;;;;4971995;28;20118;-67
2021/12/11 13:16:16;;;;;;;13.93;7.53;;;;;;;;;;4968705;28;20039;-66
2021/12/11 13:18:47;;;;;;;12.60;7.55;;;;;;;;;;4968390;28;20492;-66
2021/12/11 13:21:19;;;;;;;12.18;7.95;;;;;;;;;;4969631;28;20031;-66
2021/12/11 13:23:48;;;;;;;17.35;8.32;;;;;;;;;;4968029;28;20030;-66
2021/12/11 13:26:17;;;;;;;14.07;8.02;;;;;;;;;;4972762;28;20033;-67
2021/12/11 13:28:50;;;;;;;12.55;7.97;;;;;;;;;;4968652;28;21267;-66
2021/12/11 13:31:21;;;;;;;13.27;8.07;;;;;;;;;;4972283;28;20038;-67
2021/12/11 13:33:47;;;;;;;13.02;8.00;;;;;;;;;;4966180;28;20031;-66
2021/12/11 13:38:47;;;;;;;14.30;7.47;;;;;;;;;;4944340;28;20578;-66
2021/12/11 13:41:20;;;;;;;14.10;7.63;;;;;;;;;;4946368;28;20038;-67
2021/12/11 13:43:46;;;;;;;13.90;7.13;;;;;;;;;;4949694;28;20038;-67
2021/12/11 13:46:12;;;;;;;13.98;7.72;;;;;;;;;;4945836;28;20031;-67
2021/12/11 13:48:38;;;;;;;11.50;7.05;;;;;;;;;;4950903;28;20098;-67
2021/12/11 13:51:09;;;;;;;13.23;7.60;;;;;;;;;;4950884;28;20834;-68
2021/12/11 13:53:38;;;;;;;12.60;7.00;;;;;;;;;;4949240;28;20363;-68
2021/12/11 13:56:08;;;;;;;13.07;7.25;;;;;;;;;;4950909;28;20435;-66
2021/12/11 13:58:33;;;;;;;15.32;7.65;;;;;;;;;;4949080;28;20019;-68
2021/12/11 14:01:13;;;;;;;16.90;7.85;;;;;;;;;;4950043;28;20098;-67
2021/12/11 14:03:40;;;;;;;16.65;7.82;;;;;;;;;;4949822;28;20054;-67
2021/12/11 14:06:08;;;;;;;13.00;7.30;;;;;;;;;;4948231;28;20121;-67
2021/12/11 14:08:37;;;;;;;15.50;8.23;;;;;;;;;;4947021;28;20023;-68
2021/12/11 14:11:06;;;;;;;12.60;7.10;;;;;;;;;;4948883;28;20577;-68
2021/12/11 14:13:32;;;;;;;10.43;6.85;;;;;;;;;;4947030;28;20058;-68
2021/12/11 14:15:58;;;;;;;13.15;7.60;;;;;;;;;;4946575;28;20042;-67
2021/12/11 14:18:24;;;;;;;11.80;7.00;;;;;;;;;;4945676;28;20123;-67
2021/12/11 14:20:50;;;;;;;10.65;6.18;;;;;;;;;;4951457;28;20128;-67
2021/12/11 14:23:23;;;;;;;11.98;7.05;;;;;;;;;;4951892;28;20494;-66
2021/12/11 14:25:49;;;;;;;;;;;;;;;;;;4951629;28;20049;-66
2021/12/11 14:28:19;;;;;;;13.60;7.25;;;;;;;;;;4950164;28;19918;-67
2021/12/11 14:30:48;;;;;;;12.57;7.00;;;;;;;;;;4953862;28;20039;-68
2021/12/11 14:33:16;;;;;;;10.65;6.78;;;;;;;;;;4949533;28;20031;-67
2021/12/11 14:35:42;;;;;;;11.82;6.63;;;;;;;;;;4952767;28;20038;-67
2021/12/11 14:38:08;;;;;;;12.48;6.95;;;;;;;;;;4949749;28;20035;-69
2021/12/11 14:40:38;;;;;;;11.88;6.53;;;;;;;;;;4952395;28;20418;-67
2021/12/11 14:43:04;;;;;;;10.65;6.07;;;;;;;;;;4946975;28;20023;-67
2021/12/11 14:45:33;;;;;;;12.35;7.00;;;;;;;;;;4950907;28;20050;-67
2021/12/11 14:47:58;;;;;;;11.90;7.38;;;;;;;;;;4950590;28;20113;-65
2021/12/11 14:50:30;;;;;;;10.35;6.82;;;;;;;;;;4950710;28;20027;-66
2021/12/11 14:52:56;;;;;;;13.50;7.05;;;;;;;;;;4952856;28;20110;-68
2021/12/11 14:55:30;;;;;;;11.23;7.10;;;;;;;;;;4948246;28;20475;-66
2021/12/11 14:57:55;;;;;;;12.07;6.90;;;;;;;;;;4948501;28;20094;-66
2021/12/11 15:00:24;;;;;;;12.05;6.72;;;;;;;;;;4950932;28;20455;-67
2021/12/11 15:02:50;;;;;;;10.55;6.47;;;;;;;;;;4945808;28;20030;-66
2021/12/11 15:05:22;;;;;;;11.18;6.60;;;;;;;;;;4952028;28;20062;-68
2021/12/11 15:07:49;;;;;;;13.25;6.55;;;;;;;;;;4931705;28;20039;-67
2021/12/11 15:10:21;;;;;;;12.15;6.85;;;;;;;;;;4950677;28;20023;-67
2021/12/11 15:12:46;;;;;;;11.18;6.88;;;;;;;;;;4945373;28;20042;-67
2021/12/11 15:15:12;;;;;;;11.45;6.75;;;;;;;;;;4946764;28;20427;-68